In Rescue
 
Open Full Screen Window  High Contrast Mode
Wind Gusting 00 knots
05
June 22, 2024 10:51 PM EDT
Weather Information
Wind Direction
  230 °
Wind Speed
  05 kt (6 mph)
Wind Gust
  00 kt (0 mph)
Altimeter
29.78 in
Visibility
10 SM
Temperature
30° C
86° F
Dewpoint
16° C
61° F
Humidity
43%
Sky Condition
Broken @ 9,500 ft
VFR

METAR KVLL 230251Z AUTO 23005KT 10SM BKN095 30/16 A2978 RMK AO2 T02950160

FAA Disclaimer: The data displayed is for advisory purposes only and is not to be used for flight planning or operations.